首页
METAR-TAF:

METAR-TAF

机场 :

朱諾, 阿拉斯加州, 美国

纬度: 58-21-17N, 经度: 134-34-34W, 海拔: 6米

当前天气观测

该预报发布于12分钟前的22:28 UTC
静风
温度 4°C
湿度 93%
气压 1002 hPa
能見度: 16.1公里
散云层高于400英尺
多云层高于4900英尺
阴天层高于10000英尺
小雨

METAR: PAJN 112228Z 00000KT 10SM -RA SCT004 BKN049 OVC100 04/03 A2960 RMK AO2 RAB2159 PCPN INTMT AND VRY LGT P0000 T00390028

时间: 13:40 (22:40 UTC)

预报

该预报发布于1小时和31分钟前的21:09 UTC
预报有效从11日的 21点(UTC)到 12日的 18点(UTC)
风速4节,风向多变
能見度: 10公里
散云层高于500英尺
多云层高于5000英尺
阴天层高于7000英尺
小雨
短暂存在
从 11日的 21点(UTC)到 12日的 01点(UTC)
多云层高于500英尺
多云层高于5000英尺
阴天层高于7000英尺
从 12日的 1000点(UTC)
风速5节,风向东转东南
能見度: 10公里
散云层高于2500英尺
阴天层高于5000英尺
附近有阵雨
从 12日的 1500点(UTC)
风速5节,风向东转东南
能見度: 9.7公里
多云层高于2500英尺
阴天层高于5000英尺
小雨, 轻雾

TAF: PAJN 112109Z 1121/1218 VRB04KT P6SM -RA SCT005 BKN050 OVC070 TEMPO 1121/1201 BKN005 BKN050 OVC070 FM121000 12005KT P6SM VCSH SCT025 OVC050 WS010/08030KT FM121500 12005KT 6SM -RA BR BKN025 OVC050

超过4000个机场的气象观测和天气预报(METAR&TAF报告)。

可查询的气象台以黄色和红色小点在地图上表示。

将鼠标移到小点上方,可查看气象台名称。

然后点击查看天气观测和预报。

如需切换地图:点击带黑十字的绿色按钮放大地图;点击带横线的绿色按钮缩小地图;或者点击绿色箭头查看邻近地区的地图。


METAR-TAF: